sensor_id;sensor_type;location;lat;lon;timestamp;P1;durP1;ratioP1;P2;durP2;ratioP2
35257;SDS011;21385;50.878;8.050;2024-03-22T00:00:12;8.93;;;5.30;;
35257;SDS011;21385;50.878;8.050;2024-03-22T00:02:38;7.85;;;4.97;;
35257;SDS011;21385;50.878;8.050;2024-03-22T00:05:04;7.93;;;4.30;;
35257;SDS011;21385;50.878;8.050;2024-03-22T00:07:29;7.20;;;4.80;;
35257;SDS011;21385;50.878;8.050;2024-03-22T00:09:55;6.72;;;4.68;;
35257;SDS011;21385;50.878;8.050;2024-03-22T00:12:21;9.48;;;5.32;;
35257;SDS011;21385;50.878;8.050;2024-03-22T00:14:47;9.52;;;6.82;;
35257;SDS011;21385;50.878;8.050;2024-03-22T00:17:13;8.95;;;5.65;;
35257;SDS011;21385;50.878;8.050;2024-03-22T00:19:38;5.28;;;4.78;;
35257;SDS011;21385;50.878;8.050;2024-03-22T00:22:04;5.88;;;5.13;;
35257;SDS011;21385;50.878;8.050;2024-03-22T00:24:30;6.75;;;5.95;;
35257;SDS011;21385;50.878;8.050;2024-03-22T00:26:55;13.38;;;4.63;;
35257;SDS011;21385;50.878;8.050;2024-03-22T00:29:21;16.80;;;6.32;;
35257;SDS011;21385;50.878;8.050;2024-03-22T00:31:47;11.13;;;6.45;;
35257;SDS011;21385;50.878;8.050;2024-03-22T00:34:12;4.90;;;4.28;;
35257;SDS011;21385;50.878;8.050;2024-03-22T00:36:38;5.88;;;4.90;;
35257;SDS011;21385;50.878;8.050;2024-03-22T00:39:04;9.65;;;6.05;;
35257;SDS011;21385;50.878;8.050;2024-03-22T00:41:30;8.02;;;7.18;;
35257;SDS011;21385;50.878;8.050;2024-03-22T00:43:55;6.80;;;6.03;;
35257;SDS011;21385;50.878;8.050;2024-03-22T00:46:21;8.52;;;6.85;;
35257;SDS011;21385;50.878;8.050;2024-03-22T00:48:46;11.23;;;5.75;;
35257;SDS011;21385;50.878;8.050;2024-03-22T00:51:12;8.27;;;6.18;;
35257;SDS011;21385;50.878;8.050;2024-03-22T00:53:37;6.30;;;5.07;;
35257;SDS011;21385;50.878;8.050;2024-03-22T00:56:03;6.95;;;5.85;;
35257;SDS011;21385;50.878;8.050;2024-03-22T00:58:29;10.00;;;5.78;;
35257;SDS011;21385;50.878;8.050;2024-03-22T01:00:55;9.80;;;6.00;;
35257;SDS011;21385;50.878;8.050;2024-03-22T01:03:20;8.60;;;5.72;;
35257;SDS011;21385;50.878;8.050;2024-03-22T01:05:46;6.97;;;5.70;;
35257;SDS011;21385;50.878;8.050;2024-03-22T01:08:12;7.38;;;6.35;;
35257;SDS011;21385;50.878;8.050;2024-03-22T01:10:37;11.23;;;5.63;;
35257;SDS011;21385;50.878;8.050;2024-03-22T01:13:03;6.93;;;6.13;;
35257;SDS011;21385;50.878;8.050;2024-03-22T01:15:28;7.07;;;6.18;;
35257;SDS011;21385;50.878;8.050;2024-03-22T01:17:55;9.73;;;6.65;;
35257;SDS011;21385;50.878;8.050;2024-03-22T01:20:20;6.57;;;5.32;;
35257;SDS011;21385;50.878;8.050;2024-03-22T01:22:46;7.90;;;6.05;;
35257;SDS011;21385;50.878;8.050;2024-03-22T01:25:12;10.95;;;5.55;;
35257;SDS011;21385;50.878;8.050;2024-03-22T01:27:38;8.02;;;5.57;;
35257;SDS011;21385;50.878;8.050;2024-03-22T01:30:03;9.40;;;5.53;;
35257;SDS011;21385;50.878;8.050;2024-03-22T01:32:30;9.13;;;6.03;;
35257;SDS011;21385;50.878;8.050;2024-03-22T01:34:55;6.05;;;5.20;;
35257;SDS011;21385;50.878;8.050;2024-03-22T01:37:22;6.75;;;5.78;;
35257;SDS011;21385;50.878;8.050;2024-03-22T01:39:47;7.03;;;5.88;;
35257;SDS011;21385;50.878;8.050;2024-03-22T01:42:13;8.55;;;6.63;;
35257;SDS011;21385;50.878;8.050;2024-03-22T01:44:39;9.25;;;5.80;;
35257;SDS011;21385;50.878;8.050;2024-03-22T01:47:04;8.88;;;6.35;;
35257;SDS011;21385;50.878;8.050;2024-03-22T01:49:30;7.50;;;6.65;;
35257;SDS011;21385;50.878;8.050;2024-03-22T01:51:55;8.38;;;6.57;;
35257;SDS011;21385;50.878;8.050;2024-03-22T01:54:21;9.90;;;8.20;;
35257;SDS011;21385;50.878;8.050;2024-03-22T01:56:47;17.77;;;6.85;;
35257;SDS011;21385;50.878;8.050;2024-03-22T01:59:13;7.13;;;6.38;;
35257;SDS011;21385;50.878;8.050;2024-03-22T02:01:39;13.15;;;6.03;;
35257;SDS011;21385;50.878;8.050;2024-03-22T02:04:04;7.70;;;6.45;;
35257;SDS011;21385;50.878;8.050;2024-03-22T02:06:31;7.90;;;7.07;;
35257;SDS011;21385;50.878;8.050;2024-03-22T02:08:57;8.35;;;6.20;;
35257;SDS011;21385;50.878;8.050;2024-03-22T02:11:23;9.50;;;7.15;;
35257;SDS011;21385;50.878;8.050;2024-03-22T02:13:50;8.27;;;7.07;;
35257;SDS011;21385;50.878;8.050;2024-03-22T02:16:16;14.32;;;8.07;;
35257;SDS011;21385;50.878;8.050;2024-03-22T02:18:42;10.32;;;7.40;;
35257;SDS011;21385;50.878;8.050;2024-03-22T02:21:07;10.30;;;7.32;;
35257;SDS011;21385;50.878;8.050;2024-03-22T02:23:36;9.52;;;7.18;;
35257;SDS011;21385;50.878;8.050;2024-03-22T02:26:03;10.00;;;7.70;;
35257;SDS011;21385;50.878;8.050;2024-03-22T02:28:31;12.95;;;6.97;;
35257;SDS011;21385;50.878;8.050;2024-03-22T02:31:00;8.68;;;6.68;;
35257;SDS011;21385;50.878;8.050;2024-03-22T02:33:26;15.65;;;7.93;;
35257;SDS011;21385;50.878;8.050;2024-03-22T02:35:52;10.32;;;6.13;;
35257;SDS011;21385;50.878;8.050;2024-03-22T02:38:17;10.90;;;5.40;;
35257;SDS011;21385;50.878;8.050;2024-03-22T02:40:43;7.32;;;6.63;;
35257;SDS011;21385;50.878;8.050;2024-03-22T02:43:10;10.40;;;7.22;;
35257;SDS011;21385;50.878;8.050;2024-03-22T02:45:36;7.90;;;6.57;;
35257;SDS011;21385;50.878;8.050;2024-03-22T02:48:01;8.40;;;7.60;;
35257;SDS011;21385;50.878;8.050;2024-03-22T02:50:27;8.93;;;6.78;;
35257;SDS011;21385;50.878;8.050;2024-03-22T02:52:53;9.85;;;8.30;;
35257;SDS011;21385;50.878;8.050;2024-03-22T02:55:18;10.25;;;7.20;;
35257;SDS011;21385;50.878;8.050;2024-03-22T02:57:44;13.25;;;8.75;;
35257;SDS011;21385;50.878;8.050;2024-03-22T03:00:10;8.93;;;6.90;;
35257;SDS011;21385;50.878;8.050;2024-03-22T03:02:36;9.48;;;6.80;;
35257;SDS011;21385;50.878;8.050;2024-03-22T03:05:01;10.75;;;7.88;;
35257;SDS011;21385;50.878;8.050;2024-03-22T03:07:27;10.07;;;7.03;;
35257;SDS011;21385;50.878;8.050;2024-03-22T03:09:53;11.50;;;7.38;;
35257;SDS011;21385;50.878;8.050;2024-03-22T03:12:19;15.70;;;7.38;;
35257;SDS011;21385;50.878;8.050;2024-03-22T03:14:44;14.73;;;8.10;;
35257;SDS011;21385;50.878;8.050;2024-03-22T03:17:10;12.25;;;8.00;;
35257;SDS011;21385;50.878;8.050;2024-03-22T03:19:36;8.50;;;7.68;;
35257;SDS011;21385;50.878;8.050;2024-03-22T03:22:02;9.57;;;7.95;;
35257;SDS011;21385;50.878;8.050;2024-03-22T03:24:27;16.13;;;8.50;;
35257;SDS011;21385;50.878;8.050;2024-03-22T03:26:53;11.23;;;8.32;;
35257;SDS011;21385;50.878;8.050;2024-03-22T03:29:19;14.85;;;9.20;;
35257;SDS011;21385;50.878;8.050;2024-03-22T03:31:44;22.25;;;9.07;;
35257;SDS011;21385;50.878;8.050;2024-03-22T03:34:10;12.70;;;8.80;;
35257;SDS011;21385;50.878;8.050;2024-03-22T03:36:36;15.85;;;8.02;;
35257;SDS011;21385;50.878;8.050;2024-03-22T03:39:01;10.55;;;7.85;;
35257;SDS011;21385;50.878;8.050;2024-03-22T03:41:28;17.30;;;8.77;;
35257;SDS011;21385;50.878;8.050;2024-03-22T03:43:54;11.80;;;8.10;;
35257;SDS011;21385;50.878;8.050;2024-03-22T03:46:20;9.75;;;7.53;;
35257;SDS011;21385;50.878;8.050;2024-03-22T03:48:45;12.52;;;9.40;;
35257;SDS011;21385;50.878;8.050;2024-03-22T03:51:11;10.23;;;8.13;;
35257;SDS011;21385;50.878;8.050;2024-03-22T03:53:37;12.07;;;7.78;;
35257;SDS011;21385;50.878;8.050;2024-03-22T03:56:02;9.70;;;8.15;;
35257;SDS011;21385;50.878;8.050;2024-03-22T03:58:28;15.07;;;8.95;;
35257;SDS011;21385;50.878;8.050;2024-03-22T04:00:53;11.73;;;7.88;;
35257;SDS011;21385;50.878;8.050;2024-03-22T04:03:19;9.68;;;8.75;;
35257;SDS011;21385;50.878;8.050;2024-03-22T04:05:45;13.68;;;7.30;;
35257;SDS011;21385;50.878;8.050;2024-03-22T04:08:10;12.20;;;8.38;;
35257;SDS011;21385;50.878;8.050;2024-03-22T04:10:36;13.68;;;8.57;;
35257;SDS011;21385;50.878;8.050;2024-03-22T04:13:01;12.45;;;7.78;;
35257;SDS011;21385;50.878;8.050;2024-03-22T04:15:27;17.52;;;10.73;;
35257;SDS011;21385;50.878;8.050;2024-03-22T04:17:54;15.07;;;9.65;;
35257;SDS011;21385;50.878;8.050;2024-03-22T04:20:21;12.15;;;9.50;;
35257;SDS011;21385;50.878;8.050;2024-03-22T04:22:47;19.05;;;10.05;;
35257;SDS011;21385;50.878;8.050;2024-03-22T04:25:14;17.58;;;9.63;;
35257;SDS011;21385;50.878;8.050;2024-03-22T04:27:40;15.55;;;10.15;;
35257;SDS011;21385;50.878;8.050;2024-03-22T04:30:06;10.35;;;8.57;;
35257;SDS011;21385;50.878;8.050;2024-03-22T04:32:31;14.82;;;9.75;;
35257;SDS011;21385;50.878;8.050;2024-03-22T04:34:57;13.73;;;9.93;;
35257;SDS011;21385;50.878;8.050;2024-03-22T04:37:22;14.50;;;8.02;;
35257;SDS011;21385;50.878;8.050;2024-03-22T04:39:48;14.85;;;10.52;;
35257;SDS011;21385;50.878;8.050;2024-03-22T04:42:14;15.00;;;10.63;;
35257;SDS011;21385;50.878;8.050;2024-03-22T04:44:41;19.30;;;11.07;;
35257;SDS011;21385;50.878;8.050;2024-03-22T04:47:06;23.83;;;10.27;;
35257;SDS011;21385;50.878;8.050;2024-03-22T04:49:32;22.13;;;10.48;;
35257;SDS011;21385;50.878;8.050;2024-03-22T04:51:57;20.17;;;9.93;;
35257;SDS011;21385;50.878;8.050;2024-03-22T04:54:23;15.20;;;9.52;;
35257;SDS011;21385;50.878;8.050;2024-03-22T04:56:49;17.20;;;10.00;;
35257;SDS011;21385;50.878;8.050;2024-03-22T04:59:15;14.50;;;9.63;;
35257;SDS011;21385;50.878;8.050;2024-03-22T05:01:40;17.30;;;8.77;;
35257;SDS011;21385;50.878;8.050;2024-03-22T05:04:07;12.57;;;10.65;;
35257;SDS011;21385;50.878;8.050;2024-03-22T05:06:32;20.70;;;10.15;;
35257;SDS011;21385;50.878;8.050;2024-03-22T05:08:58;11.18;;;9.18;;
35257;SDS011;21385;50.878;8.050;2024-03-22T05:11:23;20.38;;;10.68;;
35257;SDS011;21385;50.878;8.050;2024-03-22T05:13:49;17.20;;;10.05;;
35257;SDS011;21385;50.878;8.050;2024-03-22T05:16:14;11.35;;;9.32;;
35257;SDS011;21385;50.878;8.050;2024-03-22T05:18:40;14.50;;;8.38;;
35257;SDS011;21385;50.878;8.050;2024-03-22T05:21:06;15.32;;;9.25;;
35257;SDS011;21385;50.878;8.050;2024-03-22T05:23:31;12.18;;;9.57;;
35257;SDS011;21385;50.878;8.050;2024-03-22T05:25:57;16.73;;;9.95;;
35257;SDS011;21385;50.878;8.050;2024-03-22T05:28:24;15.30;;;10.68;;
35257;SDS011;21385;50.878;8.050;2024-03-22T05:30:50;14.73;;;10.43;;
35257;SDS011;21385;50.878;8.050;2024-03-22T05:33:16;17.90;;;11.85;;
35257;SDS011;21385;50.878;8.050;2024-03-22T05:35:41;23.55;;;11.93;;
35257;SDS011;21385;50.878;8.050;2024-03-22T05:38:07;13.60;;;11.73;;
35257;SDS011;21385;50.878;8.050;2024-03-22T05:40:32;16.27;;;11.55;;
35257;SDS011;21385;50.878;8.050;2024-03-22T05:43:00;16.35;;;10.43;;
35257;SDS011;21385;50.878;8.050;2024-03-22T05:45:26;21.08;;;11.93;;
35257;SDS011;21385;50.878;8.050;2024-03-22T05:47:51;14.88;;;10.55;;
35257;SDS011;21385;50.878;8.050;2024-03-22T05:50:17;18.88;;;10.95;;
35257;SDS011;21385;50.878;8.050;2024-03-22T05:52:43;19.70;;;12.52;;
35257;SDS011;21385;50.878;8.050;2024-03-22T05:55:08;18.02;;;12.95;;
35257;SDS011;21385;50.878;8.050;2024-03-22T05:57:34;25.50;;;14.00;;
35257;SDS011;21385;50.878;8.050;2024-03-22T05:59:59;17.23;;;12.75;;
35257;SDS011;21385;50.878;8.050;2024-03-22T06:02:25;21.45;;;12.48;;
35257;SDS011;21385;50.878;8.050;2024-03-22T06:04:50;19.45;;;13.63;;
35257;SDS011;21385;50.878;8.050;2024-03-22T06:07:16;17.90;;;13.85;;
35257;SDS011;21385;50.878;8.050;2024-03-22T06:09:42;20.08;;;13.40;;
35257;SDS011;21385;50.878;8.050;2024-03-22T06:12:11;16.40;;;12.15;;
35257;SDS011;21385;50.878;8.050;2024-03-22T06:14:38;22.77;;;13.63;;
35257;SDS011;21385;50.878;8.050;2024-03-22T06:17:11;17.88;;;14.02;;
35257;SDS011;21385;50.878;8.050;2024-03-22T06:19:37;24.25;;;14.70;;
35257;SDS011;21385;50.878;8.050;2024-03-22T06:22:03;23.83;;;12.25;;
35257;SDS011;21385;50.878;8.050;2024-03-22T06:24:29;16.58;;;12.52;;
35257;SDS011;21385;50.878;8.050;2024-03-22T06:26:54;15.95;;;12.32;;
35257;SDS011;21385;50.878;8.050;2024-03-22T06:29:20;23.60;;;13.25;;
35257;SDS011;21385;50.878;8.050;2024-03-22T06:31:46;18.02;;;11.75;;
35257;SDS011;21385;50.878;8.050;2024-03-22T06:34:12;18.00;;;11.80;;
35257;SDS011;21385;50.878;8.050;2024-03-22T06:36:38;28.33;;;11.52;;
35257;SDS011;21385;50.878;8.050;2024-03-22T06:39:04;11.95;;;10.70;;
35257;SDS011;21385;50.878;8.050;2024-03-22T06:41:32;18.23;;;11.23;;
35257;SDS011;21385;50.878;8.050;2024-03-22T06:43:57;16.95;;;10.55;;
35257;SDS011;21385;50.878;8.050;2024-03-22T06:46:23;19.08;;;10.55;;
35257;SDS011;21385;50.878;8.050;2024-03-22T06:48:49;13.93;;;11.90;;
35257;SDS011;21385;50.878;8.050;2024-03-22T06:51:15;20.17;;;13.25;;
35257;SDS011;21385;50.878;8.050;2024-03-22T06:53:41;16.13;;;11.52;;
35257;SDS011;21385;50.878;8.050;2024-03-22T06:56:06;14.30;;;10.55;;
35257;SDS011;21385;50.878;8.050;2024-03-22T06:58:34;14.18;;;11.05;;
35257;SDS011;21385;50.878;8.050;2024-03-22T07:01:06;18.85;;;10.25;;
35257;SDS011;21385;50.878;8.050;2024-03-22T07:03:32;11.27;;;10.10;;
35257;SDS011;21385;50.878;8.050;2024-03-22T07:05:58;18.77;;;12.15;;
35257;SDS011;21385;50.878;8.050;2024-03-22T07:08:24;16.63;;;11.73;;
35257;SDS011;21385;50.878;8.050;2024-03-22T07:10:50;17.75;;;11.02;;
35257;SDS011;21385;50.878;8.050;2024-03-22T07:13:17;15.30;;;10.40;;
35257;SDS011;21385;50.878;8.050;2024-03-22T07:15:44;10.48;;;9.13;;
35257;SDS011;21385;50.878;8.050;2024-03-22T07:18:10;13.10;;;9.90;;
35257;SDS011;21385;50.878;8.050;2024-03-22T07:20:35;13.32;;;10.18;;
35257;SDS011;21385;50.878;8.050;2024-03-22T07:23:01;14.35;;;11.25;;
35257;SDS011;21385;50.878;8.050;2024-03-22T07:25:27;16.60;;;10.85;;
35257;SDS011;21385;50.878;8.050;2024-03-22T07:27:52;26.05;;;12.60;;
35257;SDS011;21385;50.878;8.050;2024-03-22T07:30:18;12.65;;;10.80;;
35257;SDS011;21385;50.878;8.050;2024-03-22T07:32:45;13.65;;;9.75;;
35257;SDS011;21385;50.878;8.050;2024-03-22T07:35:12;12.63;;;9.77;;
35257;SDS011;21385;50.878;8.050;2024-03-22T07:37:38;13.48;;;10.48;;
35257;SDS011;21385;50.878;8.050;2024-03-22T07:40:03;17.05;;;8.82;;
35257;SDS011;21385;50.878;8.050;2024-03-22T07:42:30;15.82;;;11.02;;
35257;SDS011;21385;50.878;8.050;2024-03-22T07:44:56;18.02;;;10.48;;
35257;SDS011;21385;50.878;8.050;2024-03-22T07:47:21;21.13;;;10.85;;
35257;SDS011;21385;50.878;8.050;2024-03-22T07:49:47;17.52;;;10.55;;
35257;SDS011;21385;50.878;8.050;2024-03-22T07:52:12;16.85;;;10.85;;
35257;SDS011;21385;50.878;8.050;2024-03-22T07:54:38;28.15;;;11.43;;
35257;SDS011;21385;50.878;8.050;2024-03-22T07:57:04;13.82;;;9.68;;
35257;SDS011;21385;50.878;8.050;2024-03-22T07:59:29;12.88;;;7.55;;
35257;SDS011;21385;50.878;8.050;2024-03-22T08:01:55;17.00;;;11.50;;
35257;SDS011;21385;50.878;8.050;2024-03-22T08:04:22;12.07;;;7.97;;
35257;SDS011;21385;50.878;8.050;2024-03-22T08:06:47;9.95;;;8.45;;
35257;SDS011;21385;50.878;8.050;2024-03-22T08:09:15;10.35;;;7.05;;
35257;SDS011;21385;50.878;8.050;2024-03-22T08:11:41;8.65;;;7.00;;
35257;SDS011;21385;50.878;8.050;2024-03-22T08:14:07;7.72;;;5.47;;
35257;SDS011;21385;50.878;8.050;2024-03-22T08:16:32;9.95;;;5.90;;
35257;SDS011;21385;50.878;8.050;2024-03-22T08:18:58;9.68;;;5.97;;
35257;SDS011;21385;50.878;8.050;2024-03-22T08:21:23;7.35;;;5.57;;
35257;SDS011;21385;50.878;8.050;2024-03-22T08:23:50;7.00;;;5.13;;
35257;SDS011;21385;50.878;8.050;2024-03-22T08:26:16;9.07;;;5.22;;
35257;SDS011;21385;50.878;8.050;2024-03-22T08:28:42;5.28;;;4.68;;
35257;SDS011;21385;50.878;8.050;2024-03-22T08:31:08;5.30;;;4.65;;
35257;SDS011;21385;50.878;8.050;2024-03-22T08:33:33;8.55;;;5.78;;
35257;SDS011;21385;50.878;8.050;2024-03-22T08:35:59;5.82;;;5.18;;
35257;SDS011;21385;50.878;8.050;2024-03-22T08:38:26;6.38;;;4.22;;
35257;SDS011;21385;50.878;8.050;2024-03-22T08:40:52;11.40;;;6.10;;
35257;SDS011;21385;50.878;8.050;2024-03-22T08:43:18;5.32;;;3.85;;
35257;SDS011;21385;50.878;8.050;2024-03-22T08:45:43;8.15;;;4.47;;
35257;SDS011;21385;50.878;8.050;2024-03-22T08:48:09;4.90;;;4.18;;
35257;SDS011;21385;50.878;8.050;2024-03-22T08:50:34;17.52;;;4.47;;
35257;SDS011;21385;50.878;8.050;2024-03-22T08:53:00;8.73;;;4.55;;
35257;SDS011;21385;50.878;8.050;2024-03-22T08:55:28;8.43;;;4.25;;
35257;SDS011;21385;50.878;8.050;2024-03-22T08:57:54;6.45;;;4.70;;
35257;SDS011;21385;50.878;8.050;2024-03-22T09:00:19;7.18;;;4.47;;
35257;SDS011;21385;50.878;8.050;2024-03-22T09:02:45;4.38;;;3.88;;
35257;SDS011;21385;50.878;8.050;2024-03-22T09:05:10;5.40;;;3.70;;
35257;SDS011;21385;50.878;8.050;2024-03-22T09:07:36;6.40;;;4.15;;
35257;SDS011;21385;50.878;8.050;2024-03-22T09:10:02;6.00;;;4.20;;
35257;SDS011;21385;50.878;8.050;2024-03-22T09:12:27;5.40;;;4.18;;
35257;SDS011;21385;50.878;8.050;2024-03-22T09:14:53;5.28;;;4.07;;
35257;SDS011;21385;50.878;8.050;2024-03-22T09:17:19;5.38;;;4.65;;
35257;SDS011;21385;50.878;8.050;2024-03-22T09:19:44;7.13;;;3.97;;
35257;SDS011;21385;50.878;8.050;2024-03-22T09:22:10;10.23;;;5.30;;
35257;SDS011;21385;50.878;8.050;2024-03-22T09:24:36;6.45;;;4.13;;
35257;SDS011;21385;50.878;8.050;2024-03-22T09:27:01;7.35;;;5.22;;
35257;SDS011;21385;50.878;8.050;2024-03-22T09:29:29;6.00;;;4.10;;
35257;SDS011;21385;50.878;8.050;2024-03-22T09:31:55;12.18;;;4.90;;
35257;SDS011;21385;50.878;8.050;2024-03-22T09:34:20;5.05;;;4.28;;
35257;SDS011;21385;50.878;8.050;2024-03-22T09:36:46;6.30;;;4.97;;
35257;SDS011;21385;50.878;8.050;2024-03-22T09:39:11;8.23;;;4.45;;
35257;SDS011;21385;50.878;8.050;2024-03-22T09:41:40;12.10;;;5.00;;
35257;SDS011;21385;50.878;8.050;2024-03-22T09:44:08;7.43;;;5.00;;
35257;SDS011;21385;50.878;8.050;2024-03-22T09:46:39;9.10;;;4.00;;
35257;SDS011;21385;50.878;8.050;2024-03-22T09:49:07;9.50;;;6.60;;
35257;SDS011;21385;50.878;8.050;2024-03-22T09:51:37;6.25;;;4.88;;
35257;SDS011;21385;50.878;8.050;2024-03-22T09:54:03;12.27;;;5.20;;
35257;SDS011;21385;50.878;8.050;2024-03-22T09:56:30;5.78;;;4.88;;
35257;SDS011;21385;50.878;8.050;2024-03-22T09:58:59;10.00;;;5.28;;
35257;SDS011;21385;50.878;8.050;2024-03-22T10:01:25;6.85;;;5.50;;
35257;SDS011;21385;50.878;8.050;2024-03-22T10:03:53;6.38;;;5.30;;
35257;SDS011;21385;50.878;8.050;2024-03-22T10:06:19;5.60;;;4.72;;
35257;SDS011;21385;50.878;8.050;2024-03-22T10:08:45;5.25;;;4.75;;
35257;SDS011;21385;50.878;8.050;2024-03-22T10:11:11;4.40;;;4.00;;
35257;SDS011;21385;50.878;8.050;2024-03-22T10:13:37;10.07;;;5.43;;
35257;SDS011;21385;50.878;8.050;2024-03-22T10:16:03;6.57;;;5.72;;
35257;SDS011;21385;50.878;8.050;2024-03-22T10:18:31;6.07;;;5.13;;
35257;SDS011;21385;50.878;8.050;2024-03-22T10:21:01;6.60;;;5.18;;
35257;SDS011;21385;50.878;8.050;2024-03-22T10:23:28;8.52;;;5.93;;
35257;SDS011;21385;50.878;8.050;2024-03-22T10:25:56;7.68;;;4.47;;
35257;SDS011;21385;50.878;8.050;2024-03-22T10:28:23;9.80;;;4.57;;
35257;SDS011;21385;50.878;8.050;2024-03-22T10:30:50;11.77;;;4.97;;
35257;SDS011;21385;50.878;8.050;2024-03-22T10:33:17;4.97;;;4.20;;
35257;SDS011;21385;50.878;8.050;2024-03-22T10:35:44;5.07;;;3.88;;
35257;SDS011;21385;50.878;8.050;2024-03-22T10:38:12;4.95;;;4.30;;
35257;SDS011;21385;50.878;8.050;2024-03-22T10:40:38;12.50;;;4.50;;
35257;SDS011;21385;50.878;8.050;2024-03-22T10:43:06;3.90;;;3.55;;
35257;SDS011;21385;50.878;8.050;2024-03-22T10:45:31;6.15;;;3.63;;
35257;SDS011;21385;50.878;8.050;2024-03-22T10:47:58;4.32;;;3.42;;
35257;SDS011;21385;50.878;8.050;2024-03-22T10:50:27;5.28;;;3.35;;
35257;SDS011;21385;50.878;8.050;2024-03-22T10:52:56;4.03;;;3.22;;
35257;SDS011;21385;50.878;8.050;2024-03-22T10:55:27;3.72;;;2.90;;
35257;SDS011;21385;50.878;8.050;2024-03-22T10:57:55;7.55;;;3.40;;
35257;SDS011;21385;50.878;8.050;2024-03-22T11:00:29;4.18;;;2.75;;
35257;SDS011;21385;50.878;8.050;2024-03-22T11:02:56;7.28;;;3.35;;
35257;SDS011;21385;50.878;8.050;2024-03-22T11:05:21;6.53;;;4.57;;
35257;SDS011;21385;50.878;8.050;2024-03-22T11:07:47;4.00;;;3.13;;
35257;SDS011;21385;50.878;8.050;2024-03-22T11:10:25;4.18;;;2.95;;
35257;SDS011;21385;50.878;8.050;2024-03-22T11:12:54;6.07;;;3.17;;
35257;SDS011;21385;50.878;8.050;2024-03-22T11:15:19;3.55;;;3.25;;
35257;SDS011;21385;50.878;8.050;2024-03-22T11:17:46;3.28;;;2.97;;
35257;SDS011;21385;50.878;8.050;2024-03-22T11:20:11;5.80;;;3.60;;
35257;SDS011;21385;50.878;8.050;2024-03-22T11:22:37;4.45;;;2.90;;
35257;SDS011;21385;50.878;8.050;2024-03-22T11:25:03;8.70;;;3.75;;
35257;SDS011;21385;50.878;8.050;2024-03-22T11:27:28;9.98;;;3.53;;
35257;SDS011;21385;50.878;8.050;2024-03-22T11:29:54;3.72;;;3.08;;
35257;SDS011;21385;50.878;8.050;2024-03-22T11:32:20;6.53;;;3.80;;
35257;SDS011;21385;50.878;8.050;2024-03-22T11:34:45;5.88;;;4.38;;
35257;SDS011;21385;50.878;8.050;2024-03-22T11:37:12;6.85;;;4.03;;
35257;SDS011;21385;50.878;8.050;2024-03-22T11:39:38;3.88;;;3.58;;
35257;SDS011;21385;50.878;8.050;2024-03-22T11:42:04;5.53;;;4.38;;
35257;SDS011;21385;50.878;8.050;2024-03-22T11:44:32;3.72;;;3.35;;
35257;SDS011;21385;50.878;8.050;2024-03-22T11:46:58;6.22;;;3.97;;
35257;SDS011;21385;50.878;8.050;2024-03-22T11:49:24;4.28;;;3.05;;
35257;SDS011;21385;50.878;8.050;2024-03-22T11:51:51;6.68;;;3.42;;
35257;SDS011;21385;50.878;8.050;2024-03-22T11:54:19;6.45;;;4.13;;
35257;SDS011;21385;50.878;8.050;2024-03-22T11:56:45;11.43;;;3.10;;
35257;SDS011;21385;50.878;8.050;2024-03-22T11:59:11;6.20;;;3.95;;
35257;SDS011;21385;50.878;8.050;2024-03-22T12:01:36;3.97;;;3.25;;
35257;SDS011;21385;50.878;8.050;2024-03-22T12:04:02;3.78;;;3.05;;
35257;SDS011;21385;50.878;8.050;2024-03-22T12:06:28;8.63;;;4.18;;
35257;SDS011;21385;50.878;8.050;2024-03-22T12:08:53;3.00;;;2.80;;
35257;SDS011;21385;50.878;8.050;2024-03-22T12:11:19;5.90;;;2.42;;
35257;SDS011;21385;50.878;8.050;2024-03-22T12:13:44;3.97;;;2.83;;
35257;SDS011;21385;50.878;8.050;2024-03-22T12:16:10;4.35;;;3.20;;
35257;SDS011;21385;50.878;8.050;2024-03-22T12:18:35;5.88;;;3.95;;
35257;SDS011;21385;50.878;8.050;2024-03-22T12:21:01;4.72;;;3.25;;
35257;SDS011;21385;50.878;8.050;2024-03-22T12:23:27;4.75;;;3.25;;
35257;SDS011;21385;50.878;8.050;2024-03-22T12:25:52;8.63;;;4.13;;
35257;SDS011;21385;50.878;8.050;2024-03-22T12:28:18;4.25;;;3.53;;
35257;SDS011;21385;50.878;8.050;2024-03-22T12:30:45;5.82;;;3.15;;
35257;SDS011;21385;50.878;8.050;2024-03-22T12:33:11;7.65;;;3.88;;
35257;SDS011;21385;50.878;8.050;2024-03-22T12:35:39;7.38;;;2.78;;
35257;SDS011;21385;50.878;8.050;2024-03-22T12:38:05;4.82;;;3.60;;
35257;SDS011;21385;50.878;8.050;2024-03-22T12:40:30;4.07;;;3.38;;
35257;SDS011;21385;50.878;8.050;2024-03-22T12:42:58;3.20;;;2.53;;
35257;SDS011;21385;50.878;8.050;2024-03-22T12:45:24;6.78;;;3.40;;
35257;SDS011;21385;50.878;8.050;2024-03-22T12:47:50;7.22;;;3.97;;
35257;SDS011;21385;50.878;8.050;2024-03-22T12:50:15;4.43;;;2.80;;
35257;SDS011;21385;50.878;8.050;2024-03-22T12:52:41;4.47;;;2.53;;
35257;SDS011;21385;50.878;8.050;2024-03-22T12:55:09;6.30;;;3.45;;
35257;SDS011;21385;50.878;8.050;2024-03-22T12:57:35;3.25;;;2.95;;
35257;SDS011;21385;50.878;8.050;2024-03-22T13:00:00;3.47;;;3.17;;
35257;SDS011;21385;50.878;8.050;2024-03-22T13:02:28;4.13;;;2.50;;
35257;SDS011;21385;50.878;8.050;2024-03-22T13:04:53;2.80;;;2.05;;
35257;SDS011;21385;50.878;8.050;2024-03-22T13:07:19;7.32;;;3.28;;
35257;SDS011;21385;50.878;8.050;2024-03-22T13:09:45;4.22;;;2.75;;
35257;SDS011;21385;50.878;8.050;2024-03-22T13:12:10;6.68;;;3.22;;
35257;SDS011;21385;50.878;8.050;2024-03-22T13:14:36;3.03;;;2.58;;
35257;SDS011;21385;50.878;8.050;2024-03-22T13:17:02;5.22;;;1.85;;
35257;SDS011;21385;50.878;8.050;2024-03-22T13:19:27;3.53;;;2.35;;
35257;SDS011;21385;50.878;8.050;2024-03-22T13:21:53;2.20;;;1.77;;
35257;SDS011;21385;50.878;8.050;2024-03-22T13:24:19;1.20;;;1.10;;
35257;SDS011;21385;50.878;8.050;2024-03-22T13:26:44;3.88;;;2.13;;
35257;SDS011;21385;50.878;8.050;2024-03-22T13:29:10;1.63;;;1.35;;
35257;SDS011;21385;50.878;8.050;2024-03-22T13:31:37;3.35;;;1.70;;
35257;SDS011;21385;50.878;8.050;2024-03-22T13:34:03;2.17;;;1.98;;
35257;SDS011;21385;50.878;8.050;2024-03-22T13:36:29;2.13;;;1.63;;
35257;SDS011;21385;50.878;8.050;2024-03-22T13:38:57;3.42;;;1.55;;
35257;SDS011;21385;50.878;8.050;2024-03-22T13:41:23;2.25;;;1.85;;
35257;SDS011;21385;50.878;8.050;2024-03-22T13:43:49;1.45;;;1.10;;
35257;SDS011;21385;50.878;8.050;2024-03-22T13:46:14;5.05;;;1.02;;
35257;SDS011;21385;50.878;8.050;2024-03-22T13:48:42;1.63;;;1.00;;
35257;SDS011;21385;50.878;8.050;2024-03-22T13:51:08;0.70;;;0.70;;
35257;SDS011;21385;50.878;8.050;2024-03-22T13:53:34;0.50;;;0.50;;
35257;SDS011;21385;50.878;8.050;2024-03-22T13:55:59;0.88;;;0.80;;
35257;SDS011;21385;50.878;8.050;2024-03-22T13:58:26;1.55;;;1.02;;
35257;SDS011;21385;50.878;8.050;2024-03-22T14:00:52;1.50;;;0.85;;
35257;SDS011;21385;50.878;8.050;2024-03-22T14:03:17;1.80;;;0.68;;
35257;SDS011;21385;50.878;8.050;2024-03-22T14:05:43;2.50;;;1.15;;
35257;SDS011;21385;50.878;8.050;2024-03-22T14:08:09;1.27;;;1.13;;
35257;SDS011;21385;50.878;8.050;2024-03-22T14:10:34;2.58;;;0.60;;
35257;SDS011;21385;50.878;8.050;2024-03-22T14:13:00;1.73;;;1.30;;
35257;SDS011;21385;50.878;8.050;2024-03-22T14:15:26;14.60;;;1.50;;
35257;SDS011;21385;50.878;8.050;2024-03-22T14:17:56;2.28;;;1.30;;
35257;SDS011;21385;50.878;8.050;2024-03-22T14:20:22;1.33;;;1.20;;
35257;SDS011;21385;50.878;8.050;2024-03-22T14:22:48;0.80;;;0.80;;
35257;SDS011;21385;50.878;8.050;2024-03-22T14:25:14;2.17;;;1.20;;
35257;SDS011;21385;50.878;8.050;2024-03-22T14:27:39;1.80;;;1.50;;
35257;SDS011;21385;50.878;8.050;2024-03-22T14:30:10;2.72;;;0.93;;
35257;SDS011;21385;50.878;8.050;2024-03-22T14:32:37;1.23;;;1.10;;